Tiempo atmosférico en la estación meteorológica de Soba, Alto Miera, Cantabria (695 m.)



Fecha
DESCASC
Temp. máxima en grados centígrados (hora)
DESCASC
Temp. mínima en grados centígrados (hora)
DESCASC
Temp. media en grados centígrados
DESCASC
Racha de viento máxima en m/sg (hora)
DESCASC
Velocidad máxima media en intervalos de 10 minutos(hora)
DESCASC
Precipitaciones diarias en mm
DESCASC
Precipitaciones de 00:00 a 06:00 en mm
DESCASC
Precipitaciones de 06:00 a 12:00 en mm
DESCASC
Precipitaciones de 12:00 a 18:00 en mm
DESCASC
Precipitaciones de 18:00 a 24:00 en mm
DESCASC
07-08-2020 31.1 (02:30) 17.7 (22:50) 24.4 11.94 (02:30) 6.11 (02:20) 0 0 0 0 0
06-08-2020 35.2 (16:40) 15.4 (01:00) 25.3 7.78 (23:59) 3.89 (23:59) 0 0 0 0 0
05-08-2020 28 (14:50) 12.2 (05:50) 20.1 5.56 (15:10) 3.61 (16:00) 0 0 0 0 0
04-08-2020 22.8 (15:50) 10.9 (03:00) 16.8 -- (--) -- (--) -- 0 -- 0 0
03-08-2020 20.8 (15:10) 11.6 (04:40) 16.2 5.56 (13:30) 3.33 (13:30) 0 0 0 0 0
02-08-2020 15.6 (14:00) 13.5 (00:00) 14.6 -- (--) -- (--) -- -- 1.4 2 0.4
01-08-2020 19.5 (13:30) 11.9 (00:00) 15.7 5.83 (18:20) 3.33 (18:20) 2 0 0 0.2 1.8
31-07-2020 25.1 (14:40) 15.7 (23:10) 20.4 -- (--) -- (--) -- -- 0 0 0
30-07-2020 35.1 (15:40) 15.7 (00:00) 25.4 17.78 (17:10) 8.89 (21:50) 0.2 0.2 0 0 0
29-07-2020 -- (--) -- (--) -- -- (--) -- (--) -- -- -- 0 0
28-07-2020 19.7 (10:40) 14.9 (00:00) 17.3 6.39 (16:50) 3.61 (16:50) 0.8 0 0 0 0.8
27-07-2020 25.7 (14:10) 15.9 (00:00) 20.8 6.67 (15:30) 4.17 (15:40) 0 0 0 0 0
26-07-2020 23.6 (14:30) 14.7 (00:00) 19.2 5.56 (16:00) 3.61 (15:30) 0 0 0 0 0
25-07-2020 24 (16:00) 10.6 (00:00) 17.3 6.39 (14:00) 3.61 (16:40) 0 0 0 0 0
24-07-2020 21.4 (16:00) 12.5 (00:00) 16.9 -- (--) -- (--) -- -- 0.2 0 0
23-07-2020 21.2 (12:30) 14 (00:00) 17.6 -- (--) -- (--) 0.2 0 0 0 0.2
22-07-2020 -- (--) -- (--) -- -- (--) -- (--) -- 0 -- -- 0.4
21-07-2020 -- (--) -- (--) -- -- (--) -- (--) -- -- 0 0 --
20-07-2020 23.5 (14:30) 13 (00:00) 18.3 6.11 (15:20) 3.61 (15:20) 1 0 0 0 1
19-07-2020 26.7 (15:50) 15.5 (00:00) 21.1 6.39 (16:20) 4.17 (16:20) 0 0 0 0 0
18-07-2020 27.6 (18:20) 13.9 (00:00) 20.8 11.11 (10:40) 4.72 (10:40) 0 0 0 0 0
17-07-2020 22.7 (17:00) 11.8 (00:00) 17.3 7.78 (17:50) 4.17 (17:50) 0 0 0 0 0
16-07-2020 20.5 (17:30) 9.9 (00:00) 15.2 5.28 (13:20) 3.06 (13:20) 0 0 0 0 0
15-07-2020 19.3 (18:00) 9.6 (00:00) 14.4 6.67 (14:50) 3.61 (14:50) 2.4 0 2.4 0 0
14-07-2020 19.6 (15:40) 9.5 (00:00) 14.6 7.22 (16:30) 3.89 (15:00) 0 0 0 0 0
13-07-2020 21.5 (16:20) 11 (00:00) 16.3 7.5 (16:50) 4.44 (16:50) 0 0 0 0 0

Gráficas

Temp. máximas Temp. mínimas Temp. medias Precipitaciones Rachas de viento máximas Velocidades máximas media en intervalos de 10 minutos

Datos horarios

Fecha y hora oficial Temperatura (ºC) Velocidad del viento (km/h) Dirección del viento Racha (km/h) Dirección de racha Precipitación (mm) Presión (hPa) Tendencia (hPa) Humedad (%)
2020-08-11 23:00:00 -- -- -- -- -- -- -- -- --
2020-08-11 22:00:00 17.6 4 Sudeste 11 Sudeste 0 -- -- 83
2020-08-11 21:00:00 19.4 4 Sudeste 11 Oeste 0 -- -- 77
2020-08-11 20:00:00 22.1 6 Oeste 30 Sudeste 0 -- -- 65
2020-08-11 19:00:00 22.9 13 Sudeste 38 Sur 0 -- -- 55
2020-08-11 18:00:00 22.4 18 Sudeste 43 Sudeste 0 -- -- 54
2020-08-11 17:00:00 19.7 4 Sur 41 Este 1.4 -- -- 74
2020-08-11 16:00:00 20.4 34 Sudeste 66 Sudeste 0.2 -- -- 68
2020-08-11 15:00:00 23.1 7 Noroeste 33 Oeste 0 -- -- 68
2020-08-11 14:00:00 24.2 9 Noroeste 18 Noroeste 0 -- -- 78
2020-08-11 13:00:00 24 11 Noroeste 21 Noroeste 0 -- -- 73
2020-08-11 12:00:00 22 6 Noroeste 20 Noroeste 0 -- -- 80
2020-08-11 11:00:00 19.2 8 Noroeste 24 Oeste 0 -- -- 95
2020-08-11 10:00:00 16.7 3 Oeste 19 Noroeste 0 -- -- 100
2020-08-11 09:00:00 16.8 7 Noroeste 42 Sur 0 -- -- 98
2020-08-11 08:00:00 16.1 9 Noroeste 23 Sudeste 0 -- -- 100
2020-08-11 07:00:00 16 7 Norte 14 Noroeste 0 -- -- 100
2020-08-11 06:00:00 17.6 4 Noroeste 35 Sudeste 0 -- -- 93
2020-08-11 05:00:00 16.3 5 Norte 19 Noroeste 1.2 -- -- 100
2020-08-11 04:00:00 16.5 3 Noroeste 6 Noroeste 0 -- -- 100
2020-08-11 03:00:00 16.7 0 Calma 4 Noroeste 0 -- -- 100
2020-08-11 02:00:00 16.6 0 Calma 4 Noroeste 0 -- -- 100
2020-08-11 01:00:00 16.6 3 Noroeste 6 Noroeste 0 -- -- 100
2020-08-11 00:00:00 16.6 2 Noroeste 6 Noroeste 0 -- -- 100
2020-08-10 23:00:00 16.6 2 Noroeste 5 Norte 0 -- -- 100
2020-08-10 22:00:00 16.6 3 Noroeste 8 Noroeste 0 -- -- 100
2020-08-10 21:00:00 16.6 5 Norte 11 Noroeste 0.2 -- -- 100
2020-08-10 20:00:00 17 6 Noroeste 12 Noroeste 0 -- -- 100
2020-08-10 19:00:00 17.4 5 Norte 9 Noroeste 0 -- -- 99
2020-08-10 18:00:00 17.2 6 Noroeste 13 Noroeste 0 -- -- 99
2020-08-10 17:00:00 17.3 6 Noroeste 16 Noroeste 0 -- -- 98
2020-08-10 16:00:00 18.5 5 Noroeste 12 Noroeste 0 -- -- 96
2020-08-10 15:00:00 19.1 6 Noroeste 16 Noroeste 0 -- -- 93
2020-08-10 14:00:00 20.1 8 Noroeste 15 Noroeste 0 -- -- 89
2020-08-10 13:00:00 20.6 9 Noroeste 14 Noroeste 0 -- -- 87
2020-08-10 12:00:00 18.8 7 Noroeste 15 Noroeste 0 -- -- 91
2020-08-10 11:00:00 17.7 3 Sudoeste 6 Sur 0 -- -- 94
2020-08-10 10:00:00 16.4 4 Sur 8 Sur 0 -- -- 99
2020-08-10 09:00:00 15.6 4 Sur 8 Sudeste 0 -- -- 100
2020-08-10 08:00:00 15.2 4 Sudeste 11 Sudeste 0 -- -- 100
2020-08-10 07:00:00 15 5 Sur 12 Sudeste 0 -- -- 100
2020-08-10 06:00:00 15.1 6 Sudeste 10 Sur 0 -- -- 100
2020-08-10 05:00:00 14.9 4 Sudeste 8 Sudeste 0 -- -- 100
2020-08-10 04:00:00 15.1 2 Sudeste 7 Sudeste 0 -- -- 98
2020-08-10 03:00:00 16 0 Calma 11 Sudeste 0 -- -- 100
2020-08-10 02:00:00 16.1 3 Sur 10 Sudeste 0.2 -- -- 100
2020-08-10 01:00:00 16 5 Sur 10 Sur 0 -- -- 100
2020-08-10 00:00:00 15.8 0 Calma 7 Sur 0 -- -- 97
2020-08-09 23:00:00 16.8 3 Sur 10 Este 0 -- -- 97
2020-08-09 22:00:00 17.6 6 Sur 13 Sudoeste 0 -- -- 99
2020-08-09 21:00:00 17.8 8 Norte 13 Noroeste 0.2 -- -- 99
2020-08-09 20:00:00 18.3 6 Noroeste 14 Noroeste 0 -- -- 99
2020-08-09 19:00:00 18.9 4 Noroeste 10 Noroeste 0 -- -- 98
2020-08-09 18:00:00 19.4 5 Noroeste 12 Noroeste 0 -- -- 96
2020-08-09 17:00:00 21.5 6 Noroeste 19 Noroeste 0 -- -- 88
2020-08-09 16:00:00 24.7 10 Noroeste 18 Noroeste 0 -- -- 80
2020-08-09 15:00:00 24.9 9 Noroeste 15 Noroeste 0 -- -- 79
2020-08-09 14:00:00 25.1 8 Noroeste 14 Noroeste 0 -- -- 75
2020-08-09 13:00:00 23.9 5 Noroeste 13 Noroeste 0 -- -- 78
2020-08-09 12:00:00 22.3 6 Noroeste 12 Norte 0 -- -- 83
2020-08-09 11:00:00 20.4 4 Noroeste 8 Noroeste 0 -- -- 87
2020-08-09 10:00:00 18.8 5 Noroeste 9 Noroeste 0 -- -- 87
2020-08-09 09:00:00 18.1 0 Calma 7 Este 0 -- -- 90
2020-08-09 08:00:00 16.7 2 Este 7 Sur 0 -- -- 91
2020-08-09 07:00:00 16.2 6 Sudeste 11 Sudeste 0 -- -- 92
2020-08-09 06:00:00 15.9 4 Sudeste 9 Sur 0 -- -- 97
2020-08-09 05:00:00 16.5 3 Noroeste 6 Sudeste 0 -- -- 97
2020-08-09 04:00:00 17.2 3 Noroeste 5 Norte 0 -- -- 95
2020-08-09 03:00:00 17.8 3 Norte 21 Noroeste 0 -- -- 93
2020-08-09 02:00:00 20.7 4 Noroeste 31 Sudeste 0 -- -- 72
2020-08-09 01:00:00 24.7 15 Sudeste 58 Sudeste 0.4 -- -- 47
2020-08-09 00:00:00 19.6 10 Sudeste 40 Sudeste 0.6 -- -- 74
2020-08-08 23:00:00 18.8 9 Sudeste 20 Sudeste 2.2 -- -- 86
2020-08-08 22:00:00 19.7 10 Sudeste 26 Este 1.2 -- -- 84
2020-08-08 21:00:00 18.5 6 Sudeste 48 Sudeste 21.6 -- -- 91
2020-08-08 20:00:00 19.5 8 Norte 21 Noroeste 0 -- -- 91
2020-08-08 19:00:00 22 11 Noroeste 18 Noroeste 0 -- -- 83
2020-08-08 18:00:00 24.6 11 Noroeste 20 Noroeste 0 -- -- 74
2020-08-08 17:00:00 26.6 10 Noroeste 18 Noroeste 0 -- -- 68
2020-08-08 16:00:00 27.4 10 Noroeste 21 Noroeste 0 -- -- 65
2020-08-08 15:00:00 27.1 9 Noroeste 20 Noroeste 0 -- -- 59
2020-08-08 14:00:00 26.8 9 Noroeste 15 Norte 0 -- -- 58
2020-08-08 13:00:00 25.5 9 Noroeste 14 Noroeste 0 -- -- 54
2020-08-08 12:00:00 24.6 6 Noroeste 12 Noroeste 0 -- -- 53
2020-08-08 11:00:00 23.4 2 Norte 7 Noroeste 0 -- -- 51
2020-08-08 10:00:00 20.5 2 Norte 4 Sudeste 0 -- -- 61
2020-08-08 09:00:00 16.4 3 Sudeste 6 Sudeste 0 -- -- 77
2020-08-08 08:00:00 15.8 3 Sur 9 Sudeste 0 -- -- 75
2020-08-08 07:00:00 15.6 3 Sudeste 9 Este 0 -- -- 73
2020-08-08 06:00:00 15.9 3 Sudeste 6 Sur 0 -- -- 73
2020-08-08 05:00:00 16.4 3 Sudeste 8 Sur 0 -- -- 70
2020-08-08 04:00:00 16.9 4 Sudeste 10 Sudeste 0 -- -- 68
2020-08-08 03:00:00 16.8 4 Sur 8 Sudeste 0 -- -- 70
2020-08-08 02:00:00 17 4 Sudeste 9 Sur 0 -- -- 72
2020-08-08 01:00:00 17.9 5 Sudeste 12 Sudeste 0 -- -- 69
2020-08-08 00:00:00 17.9 3 Sudeste 11 Sudeste 0 -- -- 72
2020-08-07 23:00:00 17.7 5 Sudeste 11 Sur 0 -- -- 75
2020-08-07 22:00:00 18.6 3 Sur 10 Sudeste 0 -- -- 77
2020-08-07 21:00:00 21.2 3 Sudeste 9 Norte 0 -- -- 74
2020-08-07 20:00:00 24.3 4 Sudoeste 8 Noroeste 0 -- -- 59
2020-08-07 19:00:00 22.9 4 Sur 12 Sur 0 -- -- 70
2020-08-07 18:00:00 20.9 4 Noroeste 22 Norte 0 -- -- 88
2020-08-07 17:00:00 22.5 12 Noroeste 24 Noroeste 0 -- -- 81
2020-08-07 16:00:00 25.7 10 Noroeste 18 Norte 0 -- -- 73
2020-08-07 15:00:00 26.2 12 Noroeste 19 Noroeste 0 -- -- 73
2020-08-07 14:00:00 27.1 9 Noroeste 16 Noroeste 0 -- -- 71
2020-08-07 13:00:00 26.3 10 Noroeste 15 Noroeste 0 -- -- 71
2020-08-07 12:00:00 25.6 6 Noroeste 10 Noroeste 0 -- -- 72
2020-08-07 11:00:00 25.9 5 Noroeste 11 Noroeste 0 -- -- 63
2020-08-07 10:00:00 25.1 3 Nordeste 16 Sudeste 0 -- -- 63
2020-08-07 09:00:00 23.4 4 Sudeste 9 Sur 0 -- -- 59
2020-08-07 08:00:00 22.9 4 Sudeste 10 Sur 0 -- -- 55
2020-08-07 07:00:00 18.7 3 Este 9 Sur 0 -- -- 80
2020-08-07 06:00:00 19.9 4 Sudeste 9 Este 0 -- -- 75
2020-08-07 05:00:00 20.9 3 Nordeste 12 Noroeste 0 -- -- 74
2020-08-07 04:00:00 24.3 6 Noroeste 18 Noroeste 0 -- -- 58
2020-08-07 03:00:00 28.5 10 Norte 43 Sudeste 0 -- -- 42
2020-08-07 02:00:00 30.9 21 Sudeste 43 Sudeste 0 -- -- 33
2020-08-07 01:00:00 30.5 17 Sudeste 40 Sudeste 0 -- -- 35
2020-08-07 00:00:00 30 14 Sudeste 28 Sudeste 0 -- -- 39
2020-08-06 23:00:00 24.3 4 Norte 11 Nordeste 0 -- -- 62
2020-08-06 22:00:00 24 3 Sudeste 7 Sur 0 -- -- 71
2020-08-06 21:00:00 27.6 0 Calma 6 Sur 0 -- -- 67
2020-08-06 20:00:00 30.7 2 Sur 14 Norte 0 -- -- 57
2020-08-06 19:00:00 31.4 9 Noroeste 19 Noroeste 0 -- -- 50
2020-08-06 18:00:00 33.8 10 Noroeste 18 Noroeste 0 -- -- 41
2020-08-06 17:00:00 34.6 9 Noroeste 17 Noroeste 0 -- -- 34
2020-08-06 16:00:00 34.6 6 Oeste 12 Oeste 0 -- -- 29
2020-08-06 15:00:00 33.5 6 Noroeste 14 Noroeste 0 -- -- 33
2020-08-06 14:00:00 32.1 8 Noroeste 17 Noroeste 0 -- -- 33
2020-08-06 13:00:00 30.8 6 Noroeste 10 Noroeste 0 -- -- 35
2020-08-06 12:00:00 29 4 Noroeste 9 Noroeste 0 -- -- 37
2020-08-06 11:00:00 26.8 3 Noroeste 9 Noroeste 0 -- -- 36
2020-08-06 10:00:00 23.5 3 Sudeste 6 Sudeste 0 -- -- 48
2020-08-06 09:00:00 18.4 2 Sudeste 8 Sudeste 0 -- -- 56
2020-08-06 08:00:00 17.4 3 Sudeste 8 Sudeste 0 -- -- 52
2020-08-06 07:00:00 16.9 3 Sudeste 8 Sudeste 0 -- -- 50
2020-08-06 06:00:00 16 4 Sudeste 8 Sudeste 0 -- -- 47
2020-08-06 05:00:00 15.5 4 Sudeste 8 Sudeste 0 -- -- 48
2020-08-06 04:00:00 15.4 3 Sudeste 10 Sudeste 0 -- -- 49
2020-08-06 03:00:00 15.6 4 Sudeste 9 Sudeste 0 -- -- 57
2020-08-06 02:00:00 15.5 4 Sudeste 8 Sudeste 0 -- -- 62
2020-08-06 01:00:00 15.4 4 Sudeste 8 Sudeste 0 -- -- 64
2020-08-06 00:00:00 16 3 Sur 8 Sur 0 -- -- 66
2020-08-05 23:00:00 16.8 3 Sudeste 13 Sudeste 0 -- -- 71
2020-08-05 22:00:00 18.4 4 Sudeste 10 Sudeste 0 -- -- 73
2020-08-05 21:00:00 20.7 3 Sudeste 6 Sur 0 -- -- 72
2020-08-05 20:00:00 26 4 Oeste 14 Noroeste 0 -- -- 56
2020-08-05 19:00:00 27.5 9 Noroeste 17 Norte 0 -- -- 47
2020-08-05 18:00:00 27.7 9 Norte 17 Noroeste 0 -- -- 48
2020-08-05 17:00:00 27.5 10 Noroeste 19 Norte 0 -- -- 46
2020-08-05 16:00:00 27.6 13 Norte 20 Norte 0 -- -- 41
2020-08-05 15:00:00 27.8 10 Noroeste 18 Norte 0 -- -- 42
2020-08-05 14:00:00 26.8 8 Noroeste 14 Oeste 0 -- -- 42
2020-08-05 13:00:00 25.7 6 Noroeste 10 Noroeste 0 -- -- 40
2020-08-05 12:00:00 24.2 5 Noroeste 8 Noroeste 0 -- -- 36
2020-08-05 11:00:00 22.3 2 Noroeste 4 Noroeste 0 -- -- 34
2020-08-05 10:00:00 19 3 Sur 14 Este 0 -- -- 39
2020-08-05 09:00:00 14.3 4 Sudeste 10 Sudeste 0 -- -- 49
2020-08-05 08:00:00 13.2 3 Sudeste 8 Sur 0 -- -- 55
2020-08-05 07:00:00 12.8 5 Sur 10 Sur 0 -- -- 55
2020-08-05 06:00:00 12.4 3 Sudeste 8 Sudeste 0 -- -- 65
2020-08-05 05:00:00 12.6 4 Sudeste 9 Sur 0 -- -- 69
2020-08-05 04:00:00 13.1 4 Sudeste 10 Sudeste 0 -- -- 72
2020-08-05 03:00:00 12.7 3 Sudeste 7 Sudeste 0 -- -- 78
2020-08-05 02:00:00 13.7 5 Sudeste 14 Sudeste 0 -- -- 77
2020-08-05 01:00:00 14.2 3 Sudeste 10 Este 0 -- -- 79
2020-08-05 00:00:00 14.2 4 Sudeste 10 Sudeste 0 -- -- 85
2020-08-04 23:00:00 14.6 3 Sudeste 9 Sudeste 0 -- -- 89
2020-08-04 22:00:00 16.3 5 Sudeste 9 Este 0 -- -- 89
2020-08-04 21:00:00 18.8 2 Sur 8 Noroeste 0 -- -- 85
2020-08-04 20:00:00 20.5 4 Noroeste 14 Norte 0 -- -- 77
2020-08-04 19:00:00 22.7 8 Noroeste 19 Oeste 0 -- -- 69
2020-08-04 18:00:00 22.8 9 Noroeste 18 Noroeste 0 -- -- 66
2020-08-04 17:00:00 22.5 11 Noroeste 18 Noroeste 0 -- -- 65
2020-08-04 16:00:00 22.6 4 Oeste 17 Noroeste 0 -- -- 64
2020-08-04 15:00:00 21.8 8 Noroeste 16 Norte 0 -- -- 67
2020-08-04 14:00:00 19.8 6 Noroeste 12 Noroeste 0 -- -- 73
2020-08-04 13:00:00 18.1 7 Noroeste 10 Oeste 0 -- -- 77
2020-08-04 12:00:00 17.1 0 Calma 6 Noroeste 0 -- -- 80
2020-08-04 11:00:00 15.9 3 Noroeste 5 Noroeste 0 -- -- 84
2020-08-04 10:00:00 -- -- -- -- -- -- -- -- --
2020-08-04 09:00:00 12.2 2 Sudeste 6 Sur 0 -- -- 94
2020-08-04 08:00:00 12.7 2 Sudeste 6 Sudeste 0 -- -- 92
2020-08-04 07:00:00 12.9 2 Sudeste 6 Sudeste 0 -- -- 93
2020-08-04 06:00:00 13.2 4 Sudeste 8 Sudeste 0 -- -- 90
2020-08-04 05:00:00 13.3 4 Sudeste 8 Sudeste 0 -- -- 87
2020-08-04 04:00:00 11.9 3 Sur 6 Sur 0 -- -- 89
2020-08-04 03:00:00 10.9 3 Sudeste 10 Este 0 -- -- 87
2020-08-04 02:00:00 11.2 5 Sudeste 10 Sudeste 0 -- -- 83
2020-08-04 01:00:00 11.9 5 Sudeste 11 Este 0 -- -- 87
2020-08-04 00:00:00 12.5 3 Sudeste 8 Sudeste 0 -- -- 93
2020-08-03 23:00:00 12.9 2 Sudeste 6 Sudeste 0 -- -- 91
2020-08-03 22:00:00 13.3 4 Sur 6 Sur 0 -- -- 90
2020-08-03 21:00:00 16.5 2 Sur 12 Noroeste 0 -- -- 79
2020-08-03 20:00:00 18.9 9 Noroeste 18 Noroeste 0 -- -- 67
2020-08-03 19:00:00 18.8 9 Noroeste 17 Noroeste 0 -- -- 69
2020-08-03 18:00:00 18.9 7 Noroeste 12 Noroeste 0 -- -- 65
2020-08-03 17:00:00 19.1 6 Noroeste 18 Noroeste 0 -- -- 67
2020-08-03 16:00:00 20.6 10 Noroeste 18 Noroeste 0 -- -- 68
2020-08-03 15:00:00 20.7 9 Noroeste 19 Noroeste 0 -- -- 66
2020-08-03 14:00:00 19.2 9 Noroeste 20 Norte 0 -- -- 70
2020-08-03 13:00:00 19.1 8 Noroeste 15 Noroeste 0 -- -- 68
2020-08-03 12:00:00 17.9 4 Noroeste 12 Norte 0 -- -- 70
2020-08-03 11:00:00 17.1 5 Noroeste 15 Noroeste 0 -- -- 78
2020-08-03 10:00:00 13.6 2 Sudeste 6 Sudeste 0 -- -- 91
2020-08-03 09:00:00 11.9 5 Este 9 Este 0 -- -- 94
2020-08-03 08:00:00 12.3 4 Sudeste 5 Sudeste 0 -- -- 98
2020-08-03 07:00:00 12.5 0 Calma 4 Sudeste 0 -- -- 100
2020-08-03 06:00:00 12.2 3 Sudeste 6 Sudeste 0 -- -- 100
2020-08-03 05:00:00 11.6 0 Calma 8 Sudeste 0 -- -- 99
2020-08-03 04:00:00 12.3 4 Este 6 Sudeste 0 -- -- 99
2020-08-03 03:00:00 12.1 2 Sur 4 Sudeste -- -- -- 97
2020-08-03 02:00:00 13.2 3 Sudeste 7 Este 0 -- -- 99
2020-08-03 01:00:00 13.7 2 Oeste 6 Norte 0 -- -- 100
2020-08-03 00:00:00 13.7 3 Nordeste 9 Noroeste 0 -- -- 100
2020-08-02 23:00:00 14 3 Noroeste 7 Noroeste 0.4 -- -- 99
2020-08-02 22:00:00 14.1 0 Calma 10 Noroeste 0 -- -- 98
2020-08-02 21:00:00 14.5 5 Noroeste 17 Norte 0 -- -- 95
2020-08-02 20:00:00 14.8 5 Noroeste 10 Noroeste 0 -- -- 96
2020-08-02 19:00:00 15.3 4 Noroeste 9 Norte 0 -- -- 93
2020-08-02 18:00:00 14.7 5 Norte 17 Noroeste 0 -- -- 95
2020-08-02 17:00:00 15.1 5 Noroeste 9 Noroeste 0 -- -- 95
2020-08-02 16:00:00 14.5 6 Noroeste 14 Noroeste 0.6 -- -- 99
2020-08-02 15:00:00 14.5 8 Noroeste 19 Noroeste 1 -- -- 98
2020-08-02 14:00:00 15.6 0 Calma 10 Noroeste 0.2 -- -- 96
2020-08-02 13:00:00 15.1 4 Noroeste 11 Noroeste 0.2 -- -- 97
2020-08-02 12:00:00 14.3 8 Noroeste 18 Noroeste 0 -- -- 99
2020-08-02 11:00:00 13.9 9 Noroeste 22 Norte 0.2 -- -- 100
2020-08-02 10:00:00 14 9 Noroeste 15 Norte 0.4 -- -- 100
2020-08-02 09:00:00 13.8 6 Noroeste 9 Norte 0.2 -- -- 100
2020-08-02 08:00:00 13.7 2 Noroeste 5 Noroeste 0.2 -- -- 100
2020-08-02 07:00:00 13.5 0 Calma 12 Noroeste 0.4 -- -- 100
2020-08-02 06:00:00 13.7 -- -- -- -- -- -- -- --
2020-08-02 05:00:00 13.9 2 Noroeste 4 Noroeste 0 -- -- 100
2020-08-02 04:00:00 13.9 3 Norte 13 Noroeste 0 -- -- 100
2020-08-02 03:00:00 14.3 8 Noroeste 12 Oeste 0.4 -- -- 100
2020-08-02 02:00:00 14.4 4 Noroeste 8 Noroeste 0.4 -- -- 100
2020-08-02 01:00:00 14.4 0 Calma 7 Norte 0 -- -- 100
2020-08-02 00:00:00 14.3 3 Este 6 Sudeste 0.2 -- -- 100
2020-08-01 23:00:00 14.3 0 Calma 12 Norte 0 -- -- 100
2020-08-01 22:00:00 14.4 8 Noroeste 15 Noroeste 0.2 -- -- 100
2020-08-01 21:00:00 15.2 6 Noroeste 13 Norte 0.6 -- -- 100
2020-08-01 20:00:00 15.4 6 Noroeste 18 Noroeste 0 -- -- 100
2020-08-01 19:00:00 16.1 6 Noroeste 21 Noroeste 0.8 -- -- 99
2020-08-01 18:00:00 17.3 6 Noroeste 14 Noroeste 0.2 -- -- 96
2020-08-01 17:00:00 17.5 4 Noroeste 18 Noroeste 0 -- -- 97
2020-08-01 16:00:00 17.4 8 Noroeste 15 Noroeste 0 -- -- 93
2020-08-01 15:00:00 18.2 9 Noroeste 16 Noroeste 0 -- -- 89
2020-08-01 14:00:00 19 8 Noroeste 14 Noroeste 0 -- -- 80
2020-08-01 13:00:00 19.2 5 Noroeste 10 Noroeste 0 -- -- 77
2020-08-01 12:00:00 18.2 5 Noroeste 10 Noroeste 0 -- -- 83
2020-08-01 11:00:00 17.6 5 Noroeste 9 Norte 0 -- -- 85
2020-08-01 10:00:00 17.6 0 Calma 8 Este 0 -- -- 78
2020-08-01 09:00:00 14.5 3 Este 8 Este 0 -- -- 90
2020-08-01 08:00:00 13.7 4 Sudeste 10 Sudeste 0 -- -- 93
2020-08-01 07:00:00 11.9 3 Sudeste 9 Sudeste 0 -- -- 93
2020-08-01 06:00:00 12.2 3 Sudeste 8 Sudeste 0 -- -- 93
2020-08-01 05:00:00 12.5 4 Sudeste 6 Sur 0 -- -- 89
2020-08-01 04:00:00 13.6 4 Sudeste 10 Sudeste 0 -- -- 90
2020-08-01 03:00:00 14.6 4 Sudeste 7 Sur 0 -- -- 93
2020-08-01 02:00:00 15.3 3 Sudeste 12 Sudeste 0 -- -- 92
2020-08-01 01:00:00 16.5 6 Sudeste 13 Sur 0 -- -- 92
2020-08-01 00:00:00 16.8 6 Sudeste 10 Sudeste 0 -- -- 93
2020-07-31 23:00:00 15.9 0 Calma 5 Sur 0 -- -- 92
2020-07-31 22:00:00 17.6 3 Sudeste 6 Sudeste 0 -- -- 93
2020-07-31 21:00:00 18.8 3 Sudoeste 8 Norte 0 -- -- 98
2020-07-31 20:00:00 18.8 8 Norte 13 Noroeste 0 -- -- 97
2020-07-31 19:00:00 19.5 3 Oeste 12 Noroeste 0 -- -- 96
2020-07-31 18:00:00 20.1 7 Noroeste 15 Noroeste 0 -- -- 91
2020-07-31 17:00:00 23.2 11 Noroeste 18 Noroeste 0 -- -- 81
2020-07-31 16:00:00 24.4 10 Noroeste 21 Noroeste 0 -- -- 77
2020-07-31 15:00:00 24.7 10 Noroeste 18 Noroeste 0 -- -- 78
2020-07-31 14:00:00 24.6 11 Noroeste 18 Norte 0 -- -- 76
2020-07-31 13:00:00 23.9 9 Noroeste 17 Norte 0 -- -- 76
2020-07-31 12:00:00 23.7 7 Noroeste 13 Noroeste 0 -- -- 72
2020-07-31 11:00:00 22.4 5 Noroeste 9 Noroeste 0 -- -- 70
2020-07-31 10:00:00 20.7 2 Norte 4 Norte 0 -- -- 76
2020-07-31 09:00:00 17.9 2 Sudeste 5 Sur 0 -- -- 82
2020-07-31 08:00:00 17.2 3 Sudeste 12 Sudeste 0 -- -- 83
2020-07-31 07:00:00 16.5 6 Sudeste 12 Sur -- -- -- 86
2020-07-31 06:00:00 16.7 3 Sur 10 Sudeste 0 -- -- 83
2020-07-31 05:00:00 18 2 Sudeste 12 Este 0 -- -- 77
2020-07-31 04:00:00 19.1 5 Sudeste 12 Este 0 -- -- 74
2020-07-31 03:00:00 20 3 Noroeste 10 Sur 0 -- -- 71
2020-07-31 02:00:00 20.2 -- -- -- -- -- -- -- --
2020-07-31 01:00:00 21.3 4 Sudeste 10 Sur 0 -- -- 66
2020-07-31 00:00:00 23.7 4 Nordeste 46 Sudeste 0 -- -- 55
2020-07-30 23:00:00 27.3 17 Sudeste 53 Este 0 -- -- 39
2020-07-30 22:00:00 27.8 29 Sudeste 64 Sudeste 0 -- -- 37
2020-07-30 21:00:00 28.8 12 Sudeste 31 Sur 0 -- -- 34
2020-07-30 20:00:00 29.2 20 Sudeste 40 Sudeste 0 -- -- 32
2020-07-30 19:00:00 27.8 5 Sur 47 Sudeste 0 -- -- 37
2020-07-30 18:00:00 28.7 18 Sudeste 64 Sudeste 0 -- -- 33
2020-07-30 17:00:00 31.8 21 Sur 59 Sur 0 -- -- 27
2020-07-30 16:00:00 34.2 21 Sur 48 Sur 0 -- -- 35
2020-07-30 15:00:00 34.4 13 Sudeste 26 Sudeste 0 -- -- 35
2020-07-30 14:00:00 33.7 13 Sudeste 30 Sudeste 0 -- -- 38
2020-07-30 13:00:00 32.2 15 Sudeste 40 Sur 0 -- -- 37
2020-07-30 12:00:00 31.5 17 Sur 52 Sudoeste 0 -- -- 38
2020-07-30 11:00:00 30.9 18 Sur 37 Sur 0 -- -- 38
2020-07-30 10:00:00 30.2 12 Sudeste 24 Sudeste 0 -- -- 40
2020-07-30 09:00:00 27.5 9 Sur 30 Sudeste 0 -- -- 46
2020-07-30 08:00:00 24.1 7 Norte 20 Sudeste 0 -- -- 55
2020-07-30 07:00:00 24.9 12 Sur 24 Sudoeste 0 -- -- 49
2020-07-30 06:00:00 18 4 Norte 8 Noroeste 0 -- -- 90
2020-07-30 05:00:00 17 4 Sudeste 8 Sur 0 -- -- 100
2020-07-30 04:00:00 16.5 3 Sur 7 Sur 0 -- -- 100
2020-07-30 03:00:00 15.7 4 Sudeste 10 Sudeste 0 -- -- 100
2020-07-30 02:00:00 16.1 4 Noroeste 10 Noroeste 0.2 -- -- 100
2020-07-30 01:00:00 16.3 3 Noroeste 9 Noroeste 0 -- -- 100
2020-07-30 00:00:00 16.6 3 Noroeste 8 Noroeste 0 -- -- 100
2020-07-29 23:00:00 17 3 Noroeste 6 Norte 0 -- -- 100
2020-07-29 22:00:00 17.2 3 Noroeste 6 Noroeste 0 -- -- 100
2020-07-29 21:00:00 17.7 2 Noroeste 6 Noroeste 0 -- -- 99
2020-07-29 20:00:00 18 4 Noroeste 6 Noroeste 0 -- -- 97
2020-07-29 19:00:00 18.3 3 Noroeste 8 Noroeste 0 -- -- 95
2020-07-29 18:00:00 18.4 5 Noroeste 8 Noroeste 0 -- -- 94
2020-07-29 17:00:00 18 3 Noroeste 9 Noroeste 0 -- -- 96
2020-07-29 16:00:00 17.1 5 Noroeste 11 Noroeste 0 -- -- 97
2020-07-29 15:00:00 17.6 5 Noroeste 13 Noroeste 0 -- -- 96
2020-07-29 14:00:00 18.2 6 Noroeste 10 Noroeste 0 -- -- 93
2020-07-29 13:00:00 17.7 5 Noroeste 11 Noroeste 0 -- -- 93
2020-07-29 12:00:00 17.4 8 Noroeste 11 Noroeste 0 -- -- 95
2020-07-29 11:00:00 17.2 6 Noroeste 9 Noroeste 0 -- -- 97
2020-07-29 10:00:00 16.1 2 Norte 4 Norte 0 -- -- 100
2020-07-29 09:00:00 -- -- -- -- -- -- -- -- --
2020-07-29 08:00:00 -- -- -- -- -- -- -- -- --
2020-07-29 07:00:00 -- -- -- -- -- -- -- -- --
2020-07-29 06:00:00 -- -- -- -- -- -- -- -- --
2020-07-29 05:00:00 15.1 3 Noroeste 6 Nordeste 0.4 -- -- 100
2020-07-29 04:00:00 15.1 2 Norte 5 Norte 0.2 -- -- 100
2020-07-29 03:00:00 15.2 0 Calma 4 Noroeste 0.4 -- -- 100
2020-07-29 02:00:00 -- -- -- -- -- -- -- -- --
2020-07-29 01:00:00 15.1 4 Norte 8 Norte 0.4 -- -- 100
2020-07-29 00:00:00 15.3 4 Norte 6 Noroeste 0.2 -- -- 100
2020-07-28 23:00:00 15.4 5 Norte 15 Noroeste 0.4 -- -- 100
2020-07-28 22:00:00 15.8 8 Noroeste 17 Noroeste 0.2 -- -- 100
2020-07-28 21:00:00 16.5 7 Noroeste 16 Noroeste 0 -- -- 99
2020-07-28 20:00:00 17.1 7 Noroeste 15 Noroeste 0 -- -- 97
2020-07-28 19:00:00 17.7 8 Noroeste 18 Oeste 0 -- -- 96
2020-07-28 18:00:00 18.3 10 Noroeste 21 Noroeste 0 -- -- 95
2020-07-28 17:00:00 18.3 12 Noroeste 23 Noroeste 0 -- -- 98
2020-07-28 16:00:00 18.7 9 Noroeste 19 Noroeste 0 -- -- 98
2020-07-28 15:00:00 18.4 10 Noroeste 18 Noroeste 0 -- -- 97
2020-07-28 14:00:00 19.3 10 Noroeste 19 Noroeste 0 -- -- 94
2020-07-28 13:00:00 19.3 10 Noroeste 17 Norte 0 -- -- 90
2020-07-28 12:00:00 19.4 6 Norte 18 Norte 0 -- -- 89
2020-07-28 11:00:00 19.3 9 Noroeste 14 Noroeste 0 -- -- 88
2020-07-28 10:00:00 18.7 4 Noroeste 6 Sudeste 0 -- -- 90
2020-07-28 09:00:00 17.2 3 Sudeste 5 Sudeste 0 -- -- 93
2020-07-28 08:00:00 16.8 0 Calma 4 Sur 0 -- -- 94
2020-07-28 07:00:00 16.7 0 Calma 2 Sudeste 0 -- -- 93
2020-07-28 06:00:00 16.8 0 Calma 4 Sur 0 -- -- 93
2020-07-28 05:00:00 16.9 2 Sur 5 Sudeste 0 -- -- 91
2020-07-28 04:00:00 16.7 2 Sudeste 5 Sudeste 0 -- -- 92
2020-07-28 03:00:00 16.4 3 Sudeste 8 Este 0 -- -- 91
2020-07-28 02:00:00 15.5 4 Sudeste 10 Sur 0 -- -- 91
2020-07-28 01:00:00 15.2 5 Sudeste 10 Sudeste 0 -- -- 93
2020-07-28 00:00:00 15.9 2 Sudeste 8 Sudeste 0 -- -- 94
2020-07-27 23:00:00 16.3 3 Este 5 Este 0 -- -- 92
2020-07-27 22:00:00 17.1 2 Sudeste 5 Este 0 -- -- 87
2020-07-27 21:00:00 19.8 0 Calma 8 Noroeste 0 -- -- 73
2020-07-27 20:00:00 20.6 6 Noroeste 13 Noroeste 0 -- -- 63
2020-07-27 19:00:00 20.9 6 Noroeste 14 Noroeste 0 -- -- 71
2020-07-27 18:00:00 21.3 7 Noroeste 14 Noroeste 0 -- -- 76
2020-07-27 17:00:00 21.3 8 Noroeste 20 Noroeste 0 -- -- 78
2020-07-27 16:00:00 23 14 Noroeste 24 Noroeste 0 -- -- 77
2020-07-27 15:00:00 25.2 12 Noroeste 19 Noroeste 0 -- -- 74
2020-07-27 14:00:00 25.5 9 Noroeste 16 Noroeste 0 -- -- 71
2020-07-27 13:00:00 24.7 8 Noroeste 15 Noroeste 0 -- -- 66
2020-07-27 12:00:00 23.5 8 Noroeste 15 Norte 0 -- -- 66
2020-07-27 09:00:00 -- -- -- -- -- -- -- -- --
2020-07-27 08:00:00 -- -- -- -- -- -- -- -- --
2020-07-27 07:00:00 -- -- -- -- -- -- -- -- --
2020-07-27 06:00:00 17.6 3 Sudeste 13 Sudeste 0 -- -- 85
2020-07-27 05:00:00 17.5 4 Sudeste 12 Sudeste 0 -- -- 88
2020-07-27 04:00:00 17.6 5 Sudeste 14 Sudeste 0 -- -- 88
2020-07-27 03:00:00 17 4 Sudeste 9 Sudeste 0 -- -- 93
2020-07-27 02:00:00 16.6 4 Sudeste 9 Este 0 -- -- 97
2020-07-27 01:00:00 17.2 7 Sudeste 12 Sudeste 0 -- -- 98
2020-07-27 00:00:00 17.4 0 Calma 2 Noroeste 0.2 -- -- 100
2020-07-26 23:00:00 17.4 2 Norte 4 Noroeste 0 -- -- 100
2020-07-26 22:00:00 17.6 2 Noroeste 4 Norte 0 -- -- 99
2020-07-26 21:00:00 17.9 3 Noroeste 6 Noroeste 0 -- -- 98
2020-07-26 20:00:00 18.2 4 Noroeste 8 Norte 0 -- -- 96
2020-07-26 19:00:00 18.8 5 Noroeste 11 Noroeste 0 -- -- 93
2020-07-26 18:00:00 20 6 Noroeste 14 Norte 0 -- -- 89
2020-07-26 17:00:00 19.8 6 Noroeste 19 Noroeste 0 -- -- 89
2020-07-26 16:00:00 22.8 11 Noroeste 20 Noroeste 0 -- -- 79
2020-07-26 15:00:00 22.7 10 Noroeste 18 Noroeste 0 -- -- 76
2020-07-26 14:00:00 23.4 9 Noroeste 17 Noroeste 0 -- -- 69
2020-07-26 13:00:00 21.9 8 Noroeste 15 Noroeste 0 -- -- 72
2020-07-26 12:00:00 21.3 9 Noroeste 17 Noroeste 0 -- -- 72
2020-07-26 11:00:00 19.7 4 Noroeste 9 Noroeste 0 -- -- 77
2020-07-26 10:00:00 18.6 4 Noroeste 8 Noroeste 0 -- -- 80
2020-07-26 09:00:00 17.1 2 Sur 5 Sudeste 0 -- -- 89
2020-07-26 08:00:00 16.1 3 Sudeste 9 Sudeste 0 -- -- 89
2020-07-26 07:00:00 14.7 4 Sudeste 8 Sudeste 0 -- -- 93
2020-07-26 06:00:00 14.9 3 Este 5 Sur 0 -- -- 92
2020-07-26 05:00:00 15.2 0 Calma 8 Noroeste 0 -- -- 91
2020-07-26 04:00:00 15.9 0 Calma 10 Sudeste 0 -- -- 87
2020-07-26 03:00:00 15.7 4 Sur 9 Sudeste 0 -- -- 87
2020-07-26 02:00:00 15.6 5 Sudeste 9 Sudeste 0 -- -- 86
2020-07-26 01:00:00 14.9 5 Sudeste 9 Sudeste 0 -- -- 85
2020-07-26 00:00:00 15.2 4 Sudeste 12 Sudeste 0 -- -- 82
2020-07-25 23:00:00 15.5 6 Sudeste 12 Sudeste -- -- -- 79
2020-07-25 22:00:00 16.1 4 Sudeste 10 Sudeste 0 -- -- 78
2020-07-25 21:00:00 20 0 Calma 9 Noroeste 0 -- -- 72
2020-07-25 20:00:00 22.8 6 Noroeste 12 Noroeste 0 -- -- 69
2020-07-25 19:00:00 21.6 5 Oeste 8 Noroeste 0 -- -- 75
2020-07-25 18:00:00 20.6 3 Oeste 16 Noroeste 0 -- -- 78
2020-07-25 17:00:00 20.4 10 Noroeste 21 Noroeste 0 -- -- 77
2020-07-25 16:00:00 24 10 Noroeste 19 Norte 0 -- -- 69
2020-07-25 15:00:00 22.9 6 Noroeste 18 Noroeste 0 -- -- 70
2020-07-25 14:00:00 22 9 Noroeste 23 Noroeste 0 -- -- 74
2020-07-25 13:00:00 21.4 -- -- -- -- 0 -- -- 75
2020-07-25 12:00:00 20.3 8 Noroeste 14 Noroeste 0 -- -- 74
2020-07-25 11:00:00 18.8 5 Noroeste 8 Noroeste 0 -- -- 77
2020-07-25 10:00:00 16.6 0 Calma 8 Sudeste 0 -- -- 78
2020-07-25 09:00:00 12.1 3 Sudeste 9 Sudeste 0 -- -- 90
2020-07-25 08:00:00 11.6 3 Sudeste 12 Sudeste 0 -- -- 88
2020-07-25 07:00:00 10.6 3 Sudeste 8 Este 0 -- -- 91
2020-07-25 06:00:00 10.8 4 Sudeste 7 Sudeste 0 -- -- 90
2020-07-25 05:00:00 10.8 3 Sudeste 8 Este 0 -- -- 89
2020-07-25 04:00:00 10.7 3 Sudeste 6 Sudeste 0 -- -- 89
2020-07-25 03:00:00 11 3 Sudeste 8 Sur 0 -- -- 89
2020-07-25 02:00:00 11.8 4 Sudeste 8 Este 0 -- -- 91
2020-07-25 01:00:00 12.4 5 Sudeste 11 Sudeste 0 -- -- 94
2020-07-25 00:00:00 12.5 5 Sudeste 10 Sudeste 0 -- -- 94
2020-07-24 23:00:00 14 3 Sudeste 8 Sudeste 0 -- -- 91
2020-07-24 22:00:00 15.2 0 Calma 8 Noroeste 0 -- -- 94
2020-07-24 21:00:00 16 4 Noroeste 12 Noroeste 0 -- -- 91
2020-07-24 20:00:00 17.3 8 Noroeste 15 Noroeste 0 -- -- 85
2020-07-24 19:00:00 18.2 8 Noroeste 15 Noroeste 0 -- -- 82
2020-07-24 18:00:00 18.9 8 Noroeste 15 Noroeste 0 -- -- 80
2020-07-24 17:00:00 20.7 8 Noroeste 19 Noroeste 0 -- -- 75
2020-07-24 16:00:00 21.4 7 Noroeste 16 Norte 0 -- -- 72
2020-07-24 15:00:00 18.2 6 Noroeste 10 Oeste -- -- -- 86
2020-07-24 14:00:00 16.4 5 Noroeste 12 Norte 0 -- -- 93
2020-07-24 13:00:00 16.6 6 Noroeste 12 Noroeste 0 -- -- 91
2020-07-24 12:00:00 16.8 3 Noroeste 9 Noroeste 0 -- -- 88
2020-07-24 11:00:00 15.7 3 Oeste 8 Noroeste 0 -- -- 96
2020-07-24 10:00:00 15.5 3 Noroeste 5 Oeste 0 -- -- 97
2020-07-24 09:00:00 14.9 2 Norte 10 Noroeste 0 -- -- 100
2020-07-24 08:00:00 15 4 Noroeste 12 Norte 0.2 -- -- 100
2020-07-24 07:00:00 15.5 0 Calma 4 Norte 0 -- -- 100
2020-07-24 06:00:00 15.5 -- -- -- -- -- -- -- --
2020-07-24 05:00:00 15.6 3 Noroeste 6 Noroeste 0 -- -- 99
2020-07-24 04:00:00 15.7 0 Calma 3 Sudeste 0 -- -- 99
2020-07-24 03:00:00 15.7 3 Noroeste 5 Noroeste 0 -- -- 99
2020-07-24 02:00:00 15.8 0 Calma 3 Sudeste 0 -- -- 99
2020-07-24 01:00:00 16.1 0 Calma 2 Sudeste 0 -- -- 99
2020-07-24 00:00:00 16.2 2 Noroeste 11 Norte 0 -- -- 99
2020-07-23 23:00:00 16.4 8 Norte 13 Noroeste 0.2 -- -- 99
2020-07-23 22:00:00 16.6 5 Norte 9 Norte 0 -- -- 99
2020-07-23 21:00:00 16.9 6 Noroeste 12 Noroeste 0 -- -- 98
2020-07-23 20:00:00 17.6 5 Noroeste 14 Noroeste 0 -- -- 97
2020-07-23 19:00:00 18.1 6 Noroeste 15 Noroeste 0 -- -- 95
2020-07-23 18:00:00 19.1 9 Noroeste 16 Noroeste 0 -- -- 92
2020-07-23 17:00:00 19.7 9 Noroeste 14 Noroeste 0 -- -- 91
2020-07-23 16:00:00 19.3 5 Noroeste 14 Norte 0 -- -- 91
2020-07-23 15:00:00 19.9 4 Noroeste 15 Noroeste 0 -- -- 89
2020-07-23 14:00:00 19.7 9 Noroeste 18 Norte 0 -- -- 87
2020-07-23 13:00:00 20.9 11 Noroeste 19 Noroeste 0 -- -- 84
2020-07-23 12:00:00 20.9 9 Noroeste 16 Norte 0 -- -- 82
2020-07-23 11:00:00 19.7 6 Noroeste 10 Noroeste 0 -- -- 83
2020-07-23 10:00:00 18.3 0 Calma 6 Norte 0 -- -- 85
2020-07-23 09:00:00 15 2 Sudeste 6 Sur 0 -- -- 97
2020-07-23 08:00:00 14.6 3 Sudeste 8 Sudeste 0 -- -- 96
2020-07-23 07:00:00 14 3 Sudeste 8 Sur 0 -- -- 97
2020-07-23 06:00:00 14.3 4 Sudeste 13 Sudeste 0 -- -- 95
2020-07-23 05:00:00 14.1 3 Sudeste 8 Sur 0 -- -- 97
2020-07-23 04:00:00 14.7 3 Sudeste 8 Sudeste 0 -- -- 96
2020-07-23 03:00:00 15.1 4 Sudeste 11 Sudeste 0 -- -- 97
2020-07-23 02:00:00 16.1 5 Sudeste 10 Sudeste 0 -- -- 96
2020-07-23 01:00:00 17.2 -- -- -- -- 0 -- -- --
2020-07-23 00:00:00 17.5 4 Sudeste 8 Sudeste 0 -- -- 100
2020-07-22 23:00:00 17.6 2 Noroeste 4 Noroeste 0 -- -- 100
2020-07-22 22:00:00 17.6 3 Noroeste 9 Noroeste 0.2 -- -- 100
2020-07-22 21:00:00 18 5 Noroeste 9 Noroeste 0.2 -- -- 99
2020-07-22 20:00:00 18.4 4 Noroeste 8 Noroeste 0 -- -- 99
2020-07-22 19:00:00 18.5 6 Noroeste 10 Noroeste 0 -- -- 98
2020-07-22 18:00:00 -- -- -- -- -- -- -- -- --
2020-07-22 17:00:00 -- -- -- -- -- -- -- -- --
2020-07-22 16:00:00 -- -- -- -- -- -- -- -- --
2020-07-22 15:00:00 -- -- -- -- -- -- -- -- --
2020-07-22 14:00:00 -- -- -- -- -- -- -- -- --
2020-07-22 13:00:00 -- -- -- -- -- -- -- -- --
2020-07-22 12:00:00 -- -- -- -- -- -- -- -- --
2020-07-22 11:00:00 -- -- -- -- -- -- -- -- --
2020-07-22 10:00:00 -- -- -- -- -- -- -- -- --
2020-07-22 09:00:00 -- -- -- -- -- -- -- -- --
2020-07-22 08:00:00 -- -- -- -- -- -- -- -- --
2020-07-22 07:00:00 -- -- -- -- -- -- -- -- --
2020-07-22 06:00:00 -- -- -- -- -- -- -- -- --
2020-07-22 05:00:00 -- -- -- -- -- -- -- -- --
2020-07-22 04:00:00 -- -- -- -- -- -- -- -- --
2020-07-22 03:00:00 -- -- -- -- -- -- -- -- --
2020-07-22 02:00:00 -- -- -- -- -- -- -- -- --
2020-07-22 01:00:00 -- -- -- -- -- -- -- -- --
2020-07-22 00:00:00 -- -- -- -- -- -- -- -- --
2020-07-21 23:00:00 -- -- -- -- -- -- -- -- --
2020-07-21 22:00:00 16.8 5 Norte 22 Oeste 0.2 -- -- 96
2020-07-21 21:00:00 17.8 13 Sudeste 24 Sur 0 -- -- 93
2020-07-21 20:00:00 17 3 Noroeste 17 Norte 0 -- -- 96
2020-07-21 19:00:00 17.7 2 Sudoeste 11 Norte 0 -- -- 93
2020-07-21 18:00:00 19 7 Noroeste 12 Noroeste 0 -- -- 88
2020-07-21 17:00:00 18.8 8 Noroeste 12 Norte 0 -- -- 86
2020-07-21 16:00:00 18.4 7 Noroeste 14 Oeste 0 -- -- 86
2020-07-21 15:00:00 18.4 6 Noroeste 14 Noroeste 0 -- -- 90
2020-07-21 14:00:00 18.3 8 Noroeste 17 Noroeste 0 -- -- 87
2020-07-21 13:00:00 19.5 8 Noroeste 17 Noroeste 0 -- -- 84
2020-07-21 12:00:00 19.5 6 Noroeste 13 Noroeste 0 -- -- 78
2020-07-21 11:00:00 18.3 5 Norte 11 Noroeste 0 -- -- 84
2020-07-21 10:00:00 16.6 2 Noroeste 8 Sudeste 0 -- -- 89
2020-07-21 09:00:00 14.4 4 Sur 7 Sur 0 -- -- 96
2020-07-21 08:00:00 14 4 Sur 9 Sudeste 0 -- -- 96
2020-07-21 07:00:00 13.6 4 Sudeste 9 Sudeste 0 -- -- 96
2020-07-21 06:00:00 -- -- -- -- -- -- -- -- --
2020-07-21 05:00:00 14.1 4 Sudeste 7 Sudeste 0 -- -- 97
2020-07-21 04:00:00 14 0 Calma 9 Sudeste 0 -- -- 98
2020-07-21 03:00:00 13.6 4 Sudeste 8 Sudeste 0 -- -- 98
2020-07-21 02:00:00 14.4 0 Calma 8 Sudeste 0 -- -- 97
2020-07-21 01:00:00 15 3 Norte 5 Este 0 -- -- 99
2020-07-21 00:00:00 15.6 0 Calma 6 Noroeste 0 -- -- 100
2020-07-20 23:00:00 15.7 3 Noroeste 7 Noroeste 0 -- -- 100
2020-07-20 22:00:00 15.7 5 Norte 9 Noroeste 0.4 -- -- 100
2020-07-20 21:00:00 15.9 5 Noroeste 12 Noroeste 0.2 -- -- 100
2020-07-20 20:00:00 16.4 6 Noroeste 14 Noroeste 0.2 -- -- 100
2020-07-20 19:00:00 16.6 5 Noroeste 14 Noroeste 0.2 -- -- 100
2020-07-20 18:00:00 16.8 8 Noroeste 17 Noroeste 0 -- -- 99
2020-07-20 17:00:00 17.7 8 Noroeste 20 Noroeste 0 -- -- 95
2020-07-20 16:00:00 19.7 11 Noroeste 22 Noroeste 0 -- -- 86
2020-07-20 15:00:00 23 10 Noroeste 19 Noroeste 0 -- -- 75
2020-07-20 14:00:00 22.6 10 Noroeste 22 Noroeste 0 -- -- 71
2020-07-20 13:00:00 21.6 9 Noroeste 20 Noroeste 0 -- -- 77
2020-07-20 12:00:00 19.8 8 Noroeste 13 Norte 0 -- -- 82
2020-07-20 11:00:00 18.6 5 Noroeste 10 Noroeste 0 -- -- 83
2020-07-20 10:00:00 17 6 Noroeste 10 Noroeste 0 -- -- 88
2020-07-20 09:00:00 13.6 0 Calma 8 Sudeste 0 -- -- 94
2020-07-20 08:00:00 13.1 3 Sudeste 8 Sudeste 0 -- -- 91
2020-07-20 07:00:00 13 5 Sudeste 9 Sudeste 0 -- -- 91
2020-07-20 06:00:00 13.1 3 Sudeste 8 Sudeste 0 -- -- 91
2020-07-20 05:00:00 13.5 2 Sudeste 7 Sur 0 -- -- 90
2020-07-20 04:00:00 13.9 3 Sudeste 9 Este 0 -- -- 90
2020-07-20 03:00:00 14.4 4 Sudeste 8 Este 0 -- -- 92
2020-07-20 02:00:00 15 5 Sudeste 9 Sudeste 0 -- -- 93
2020-07-20 01:00:00 15.6 4 Sudeste 9 Sudeste 0 -- -- 93
2020-07-20 00:00:00 16.3 2 Este 8 Norte 0 -- -- 93
2020-07-19 23:00:00 17.5 4 Norte 14 Norte 0 -- -- 93
2020-07-19 22:00:00 18.5 4 Norte 10 Norte 0 -- -- 92
2020-07-19 21:00:00 19.6 5 Norte 10 Norte 0 -- -- 89
2020-07-19 20:00:00 19.8 4 Noroeste 9 Noroeste 0 -- -- 89
2020-07-19 19:00:00 19.8 4 Noroeste 13 Noroeste 0 -- -- 89
2020-07-19 18:00:00 20.2 7 Noroeste 16 Noroeste 0 -- -- 89
2020-07-19 17:00:00 22.1 12 Noroeste 23 Noroeste 0 -- -- 83
2020-07-19 16:00:00 26.7 12 Noroeste 21 Noroeste 0 -- -- 71
2020-07-19 15:00:00 26.4 11 Noroeste 17 Norte 0 -- -- 69
2020-07-19 14:00:00 25.9 8 Noroeste 16 Norte 0 -- -- 68
2020-07-19 13:00:00 25.4 9 Noroeste 15 Noroeste 0 -- -- 67
2020-07-19 12:00:00 24.9 5 Noroeste 11 Noroeste 0 -- -- 60
2020-07-19 11:00:00 23.7 3 Noroeste 13 Noroeste 0 -- -- 61
2020-07-19 10:00:00 23.1 2 Nordeste 11 Este 0 -- -- 54
2020-07-19 09:00:00 18.1 3 Sudeste 6 Sudeste 0 -- -- 61
2020-07-19 08:00:00 18.7 3 Sudeste 9 Sur 0 -- -- 57
2020-07-19 07:00:00 17 3 Sudeste 7 Este 0 -- -- 50
2020-07-19 06:00:00 16.3 4 Sudeste 9 Sur 0 -- -- 58
2020-07-19 05:00:00 16.7 2 Sudeste 13 Sudeste 0 -- -- 61
2020-07-19 04:00:00 15.7 0 Calma 7 Sur 0 -- -- 61
2020-07-19 03:00:00 15.6 3 Sudeste 6 Sudeste 0 -- -- 64
2020-07-19 02:00:00 16.5 5 Sudeste 11 Este 0 -- -- 61
2020-07-19 01:00:00 16.6 3 Sudeste 9 Este 0 -- -- 63
2020-07-19 00:00:00 16.4 4 Sudeste 8 Este 0 -- -- 77
2020-07-18 23:00:00 18 0 Calma 8 Este 0 -- -- 84
2020-07-18 22:00:00 19.3 4 Sudeste 7 Este 0 -- -- 84
2020-07-18 21:00:00 23.3 3 Sur 12 Norte 0 -- -- 75
2020-07-18 20:00:00 26.8 6 Noroeste 14 Noroeste 0 -- -- 65
2020-07-18 19:00:00 27 8 Noroeste 14 Noroeste 0 -- -- 66
2020-07-18 18:00:00 27.1 9 Noroeste 15 Noroeste 0 -- -- 66
2020-07-18 17:00:00 27.2 10 Noroeste 19 Noroeste 0 -- -- 63
2020-07-18 16:00:00 27.1 7 Noroeste 15 Noroeste 0 -- -- 59
2020-07-18 15:00:00 26.2 8 Noroeste 17 Norte 0 -- -- 57
2020-07-18 14:00:00 24.9 10 Noroeste 18 Noroeste 0 -- -- 61
2020-07-18 13:00:00 24.2 10 Noroeste 21 Este 0 -- -- 59
2020-07-18 12:00:00 23.7 6 Sudeste 18 Oeste 0 -- -- 50
2020-07-18 11:00:00 21.9 6 Nordeste 40 Nordeste 0 -- -- 54
2020-07-18 10:00:00 19.8 12 Sudeste 32 Este 0 -- -- 64
2020-07-18 09:00:00 16.1 7 Nordeste 18 Noroeste 0 -- -- 77
2020-07-18 08:00:00 16 9 Norte 21 Nordeste 0 -- -- 76
2020-07-18 07:00:00 17.1 7 Nordeste 32 Noroeste 0 -- -- 72
2020-07-18 06:00:00 16.3 13 Norte 29 Norte 0 -- -- 77
2020-07-18 05:00:00 15.9 10 Noroeste 25 Noroeste 0 -- -- 79
2020-07-18 04:00:00 16.2 5 Sudoeste 39 Este 0 -- -- 76
2020-07-18 03:00:00 16.2 8 Norte 33 Sudeste 0 -- -- 76
2020-07-18 02:00:00 16.6 15 Sudeste 31 Este 0 -- -- 72
2020-07-18 01:00:00 16.6 9 Sur 36 Este 0 -- -- 69
2020-07-18 00:00:00 13.9 8 Oeste 18 Sur 0 -- -- 85
2020-07-17 23:00:00 15.6 5 Norte 22 Este 0 -- -- 74
2020-07-17 22:00:00 16.4 12 Sudeste 26 Este 0 -- -- 73
2020-07-17 21:00:00 17.4 9 Este 23 Este 0 -- -- 65
2020-07-17 20:00:00 18.2 11 Este 26 Sudeste 0 -- -- 69
2020-07-17 19:00:00 19.9 7 Este 27 Sudeste 0 -- -- 70
2020-07-17 18:00:00 20.8 14 Este 28 Sudeste 0 -- -- 66
2020-07-17 17:00:00 22.7 8 Noroeste 20 Noroeste 0 -- -- 65
2020-07-17 16:00:00 21.3 8 Noroeste 20 Noroeste 0 -- -- 69
2020-07-17 15:00:00 21.1 11 Noroeste 19 Noroeste 0 -- -- 67
2020-07-17 14:00:00 19.3 11 Noroeste 20 Noroeste 0 -- -- 75
2020-07-17 13:00:00 19.1 8 Noroeste 16 Noroeste 0 -- -- 72
2020-07-17 12:00:00 17.9 6 Noroeste 13 Noroeste 0 -- -- 75
2020-07-17 11:00:00 15.8 4 Noroeste 8 Norte 0 -- -- 79
2020-07-17 10:00:00 13.9 5 Sur 11 Sudeste 0 -- -- 82
2020-07-17 09:00:00 12.9 6 Sur 11 Sur 0 -- -- 87
2020-07-17 08:00:00 12.1 6 Sur 11 Sur 0 -- -- 90
2020-07-17 07:00:00 11.8 5 Sudeste 12 Sur 0 -- -- 91
2020-07-17 06:00:00 12 5 Sudeste 13 Sur 0 -- -- 91
2020-07-17 05:00:00 12.2 5 Sudeste 10 Sudeste 0 -- -- 91
2020-07-17 04:00:00 12.6 4 Sur 10 Sur 0 -- -- 90
2020-07-17 03:00:00 12.9 4 Sur 9 Sur 0 -- -- 90
2020-07-17 02:00:00 13.2 3 Sudoeste 9 Sur 0 -- -- 91
2020-07-17 01:00:00 13.6 0 Calma 5 Noroeste 0 -- -- 97
2020-07-17 00:00:00 13.8 2 Noroeste 4 Norte 0 -- -- 96
2020-07-16 23:00:00 13.9 0 Calma 3 Norte 0 -- -- 95
2020-07-16 22:00:00 14.8 0 Calma 7 Oeste 0 -- -- 91
2020-07-16 21:00:00 16.1 3 Oeste 10 Noroeste 0 -- -- 87
2020-07-16 20:00:00 18.4 7 Noroeste 17 Noroeste 0 -- -- 78
2020-07-16 19:00:00 19.6 10 Noroeste 18 Noroeste 0 -- -- 76
2020-07-16 18:00:00 19.9 9 Noroeste 18 Noroeste 0 -- -- 76
2020-07-16 17:00:00 20.2 9 Noroeste 18 Noroeste 0 -- -- 73
2020-07-16 16:00:00 19.8 9 Noroeste 18 Noroeste 0 -- -- 75
2020-07-16 15:00:00 19.8 9 Noroeste 16 Noroeste 0 -- -- 75
2020-07-16 14:00:00 18.7 10 Noroeste 19 Noroeste 0 -- -- 79
2020-07-16 13:00:00 18.7 8 Noroeste 15 Noroeste 0 -- -- 73
2020-07-16 12:00:00 16.7 6 Noroeste 12 Oeste 0 -- -- 77
2020-07-16 11:00:00 14.8 6 Noroeste 14 Noroeste 0 -- -- 85
2020-07-16 10:00:00 14.9 8 Noroeste 11 Noroeste 0 -- -- 82
2020-07-16 09:00:00 11.6 0 Calma 9 Sudeste 0 -- -- 92
2020-07-16 08:00:00 11.6 6 Sudeste 10 Sudeste 0 -- -- 89
2020-07-16 07:00:00 10.5 6 Sudeste 10 Sudeste 0 -- -- 91
2020-07-16 06:00:00 10.4 4 Sudeste 10 Sur 0 -- -- 91
2020-07-16 05:00:00 11.5 5 Sudeste 8 Sudeste 0 -- -- 91
2020-07-16 04:00:00 11.8 0 Calma 7 Sudeste 0 -- -- 95
2020-07-16 03:00:00 11.1 4 Sudeste 9 Sudeste 0 -- -- 96
2020-07-16 02:00:00 10 3 Sudeste 7 Sur 0 -- -- 96
2020-07-16 01:00:00 11 3 Sudeste 7 Sudeste 0 -- -- 94
2020-07-16 00:00:00 12.8 0 Calma 4 Sur 0 -- -- 96
2020-07-15 23:00:00 13.4 3 Noroeste 8 Noroeste 0 -- -- 96
2020-07-15 22:00:00 13.7 0 Calma 5 Sur 0 -- -- 93
2020-07-15 21:00:00 15.3 2 Oeste 8 Oeste 0 -- -- 87
2020-07-15 20:00:00 16.5 6 Noroeste 17 Noroeste 0 -- -- 81
2020-07-15 19:00:00 16.7 9 Noroeste 19 Noroeste 0 -- -- 81
2020-07-15 18:00:00 19.3 8 Noroeste 18 Noroeste 0 -- -- 73
2020-07-15 17:00:00 18.1 13 Noroeste 22 Noroeste 0 -- -- 78
2020-07-15 16:00:00 18.7 10 Noroeste 24 Noroeste 0 -- -- 76
2020-07-15 15:00:00 17.7 9 Noroeste 24 Noroeste 0 -- -- 81
2020-07-15 14:00:00 16.5 8 Noroeste 14 Noroeste 0 -- -- 85
2020-07-15 13:00:00 15.3 8 Noroeste 14 Noroeste 0 -- -- 90
2020-07-15 12:00:00 14.2 10 Noroeste 18 Noroeste 0.2 -- -- 98
2020-07-15 11:00:00 14.2 8 Noroeste 13 Noroeste 0.4 -- -- 98
2020-07-15 10:00:00 13.4 0 Calma 4 Sur 0.4 -- -- 97
2020-07-15 09:00:00 12.6 2 Sudoeste 5 Sur 1.4 -- -- 96
2020-07-15 08:00:00 12.8 0 Calma 8 Norte 0 -- -- 94
2020-07-15 07:00:00 12.5 3 Este 7 Sudeste 0 -- -- 96
2020-07-15 06:00:00 12.5 3 Sur 5 Sudeste 0 -- -- 95
2020-07-15 05:00:00 12.6 3 Sudeste 5 Sudeste 0 -- -- 90
2020-07-15 04:00:00 12.4 2 Sudeste 4 Sudeste 0 -- -- 91
2020-07-15 03:00:00 12.3 3 Sur 6 Sudeste 0 -- -- 89
2020-07-15 02:00:00 11.9 5 Sudeste 9 Sudeste 0 -- -- 87
2020-07-15 01:00:00 10.4 3 Sur 9 Sudeste 0 -- -- 87
2020-07-15 00:00:00 9.8 5 Sudeste 10 Sudeste 0 -- -- 87
2020-07-14 23:00:00 10.2 3 Sudeste 7 Este 0 -- -- 91
2020-07-14 22:00:00 12.5 2 Sudeste 5 Sur 0 -- -- 86
2020-07-14 21:00:00 15.6 6 Noroeste 15 Noroeste 0 -- -- 72
2020-07-14 20:00:00 17 8 Noroeste 19 Noroeste 0 -- -- 68
2020-07-14 19:00:00 17.6 11 Noroeste 21 Noroeste 0 -- -- 67
2020-07-14 18:00:00 18.7 9 Noroeste 23 Noroeste 0 -- -- 56
2020-07-14 17:00:00 18.9 12 Noroeste 26 Noroeste 0 -- -- 67
2020-07-14 16:00:00 18.8 13 Noroeste 24 Norte 0 -- -- 65
2020-07-14 15:00:00 18.1 14 Noroeste 22 Noroeste 0 -- -- 68
2020-07-14 14:00:00 18.4 10 Noroeste 21 Noroeste 0 -- -- 66
2020-07-14 13:00:00 18.4 7 Noroeste 19 Noroeste 0 -- -- 63
2020-07-14 12:00:00 17 7 Noroeste 21 Noroeste 0 -- -- 71
2020-07-14 11:00:00 16.4 7 Noroeste 15 Noroeste 0 -- -- 66
2020-07-14 10:00:00 15.3 0 Calma 4 Norte 0 -- -- 69
2020-07-14 09:00:00 10.9 3 Sudeste 7 Este 0 -- -- 85
2020-07-14 08:00:00 10 2 Sudeste 9 Sudeste 0 -- -- 81
2020-07-14 07:00:00 10 2 Este 8 Sudeste 0 -- -- 79
2020-07-14 06:00:00 10.9 4 Sudeste 11 Sudeste 0 -- -- 75
2020-07-14 05:00:00 11 4 Sudeste 7 Sudeste 0 -- -- 77
2020-07-14 04:00:00 10.6 3 Sudeste 8 Sudeste 0 -- -- 81
2020-07-14 03:00:00 10.2 5 Sur 10 Sudeste 0 -- -- 84
2020-07-14 02:00:00 10.4 0 Calma 8 Sur 0 -- -- 84
2020-07-14 01:00:00 11.2 5 Sur 10 Sudeste 0 -- -- 88
2020-07-14 00:00:00 11.9 4 Sudeste 9 Sudeste 0 -- -- 91
2020-07-13 23:00:00 13.4 2 Sur 9 Este 0 -- -- 93
2020-07-13 22:00:00 14.7 5 Sudeste 8 Este 0 -- -- 88
2020-07-13 21:00:00 19 2 Oeste 17 Noroeste 0 -- -- 71
2020-07-13 20:00:00 20 10 Noroeste 25 Noroeste 0 -- -- 64
2020-07-13 19:00:00 20.6 13 Noroeste 26 Noroeste 0 -- -- 63
2020-07-13 18:00:00 21 14 Noroeste 26 Noroeste 0 -- -- 63
2020-07-13 17:00:00 21.1 16 Noroeste 27 Noroeste 0 -- -- 63
2020-07-13 16:00:00 21.3 15 Noroeste 27 Noroeste 0 -- -- 61
2020-07-13 15:00:00 21.4 12 Noroeste 23 Noroeste 0 -- -- 66
2020-07-13 14:00:00 21 12 Noroeste 23 Noroeste 0 -- -- 66
2020-07-13 13:00:00 20.3 11 Noroeste 21 Noroeste 0 -- -- 63
2020-07-13 12:00:00 19.8 7 Noroeste 13 Norte 0 -- -- 62
2020-07-13 11:00:00 18.6 5 Noroeste 9 Noroeste 0 -- -- 67
2020-07-13 10:00:00 17 0 Calma 5 Este 0 -- -- 71
2020-07-13 09:00:00 12.2 4 Este 8 Sudeste 0 -- -- 86
2020-07-13 08:00:00 11.1 3 Sudeste 6 Sudeste 0 -- -- 93
2020-07-13 07:00:00 11.4 2 Sudeste 6 Sudeste 0 -- -- 91
2020-07-13 06:00:00 12.6 3 Sudeste 5 Sudeste 0 -- -- 93
2020-07-13 05:00:00 13.2 0 Calma 4 Sudeste 0 -- -- 96
2020-07-13 04:00:00 14 0 Calma 3 Sudeste 0 -- -- 98
2020-07-13 03:00:00 14.1 0 Calma 3 Noroeste 0 -- -- 98
2020-07-13 02:00:00 14.5 0 Calma 9 Noroeste 0 -- -- 98
2020-07-13 01:00:00 15 6 Noroeste 12 Noroeste 0 -- -- 98
2020-07-13 00:00:00 15.5 2 Noroeste 10 Noroeste 0 -- -- 98